Time;durP1;ratioP1;P1;durP2;ratioP2;P2;SDS_P1;SDS_P2;PMS_P1;PMS_P2;Temp;Humidity;BMP_temperature;BMP_pressure;BME280_temperature;BME280_humidity;BME280_pressure;Samples;Min_cycle;Max_cycle;Signal;HPM_P1;HPM_P2
2022/12/01 00:00:11;;;;;;;57.38;27.77;;;6.10;99.90;;;;;;5078354;28;20044;-74
2022/12/01 00:02:37;;;;;;;56.53;26.77;;;6.40;99.90;;;;;;5095322;28;20083;-74
2022/12/01 00:05:03;;;;;;;56.63;27.25;;;6.40;99.90;;;;;;5078342;28;20040;-74
2022/12/01 00:07:28;;;;;;;60.97;27.55;;;6.10;99.90;;;;;;5078128;28;20055;-74
2022/12/01 00:12:42;;;;;;;59.28;26.25;;;6.10;99.90;;;;;;5096175;28;20052;-74
2022/12/01 00:15:09;;;;;;;57.22;26.27;;;6.20;99.90;;;;;;5095984;28;20133;-74
2022/12/01 00:17:36;;;;;;;63.22;29.27;;;6.50;99.90;;;;;;5095820;28;20117;-74
2022/12/01 00:20:01;;;;;;;60.55;28.40;;;6.20;99.90;;;;;;5094677;28;20052;-74
2022/12/01 00:22:27;;;;;;;66.57;29.30;;;6.60;99.90;;;;;;5094740;28;20059;-74
2022/12/01 00:24:52;;;;;;;61.72;28.27;;;6.50;99.90;;;;;;5094528;28;20157;-74
2022/12/01 00:27:18;;;;;;;55.92;26.48;;;6.20;99.90;;;;;;5094093;28;20047;-74
2022/12/01 00:29:45;;;;;;;60.05;27.48;;;6.30;99.90;;;;;;5111375;28;20044;-74
2022/12/01 00:32:11;;;;;;;54.50;28.77;;;6.40;99.90;;;;;;5077614;28;20048;-74
2022/12/01 00:34:37;;;;;;;57.05;26.77;;;6.50;99.90;;;;;;5094547;28;20044;-74
2022/12/01 00:37:04;;;;;;;61.90;28.17;;;6.20;99.90;;;;;;5094352;28;20050;-74
2022/12/01 00:39:29;;;;;;;61.60;27.15;;;6.30;99.90;;;;;;5110055;27;20114;-74
2022/12/01 00:41:55;;;;;;;56.38;26.38;;;7.00;99.90;;;;;;5118253;27;20047;-74
2022/12/01 00:44:21;;;;;;;56.28;27.48;;;6.40;99.90;;;;;;5101044;27;20095;-74
2022/12/01 00:46:46;;;;;;;58.72;27.70;;;6.30;99.90;;;;;;5118181;27;20043;-74
2022/12/01 00:49:12;;;;;;;56.35;26.92;;;6.30;99.90;;;;;;5101049;27;20047;-74
2022/12/01 00:51:38;;;;;;;59.63;27.83;;;6.10;99.90;;;;;;5101098;27;20084;-74
2022/12/01 00:54:04;;;;;;;59.25;27.48;;;6.30;99.90;;;;;;5135840;27;20086;-74
2022/12/01 00:56:30;;;;;;;64.38;27.48;;;6.10;99.90;;;;;;5117384;27;20059;-74
2022/12/01 00:58:56;;;;;;;59.03;27.98;;;6.50;99.90;;;;;;5151710;27;20039;-74
2022/12/01 01:01:22;;;;;;;59.65;28.58;;;6.50;99.90;;;;;;5136008;27;20042;-74
2022/12/01 01:03:47;;;;;;;59.42;29.05;;;6.20;99.90;;;;;;5152132;27;20069;-74
2022/12/01 01:06:13;;;;;;;63.42;29.67;;;7.10;99.90;;;;;;5135731;27;20043;-74
2022/12/01 01:08:39;;;;;;;57.78;27.88;;;6.20;99.90;;;;;;5117416;27;20556;-74
2022/12/01 01:11:06;;;;;;;58.35;28.25;;;6.30;99.90;;;;;;5152105;27;20417;-74
2022/12/01 01:13:32;;;;;;;62.58;28.90;;;6.10;99.90;;;;;;5117478;27;20047;-74
2022/12/01 01:16:19;;;;;;;61.35;27.85;;;6.30;99.90;;;;;;5135670;27;20046;-74
2022/12/01 01:18:45;;;;;;;63.25;27.65;;;6.50;99.90;;;;;;5117039;27;20135;-74
2022/12/01 01:21:14;;;;;;;57.83;27.52;;;6.40;99.90;;;;;;5134983;27;20082;-74
2022/12/01 01:23:41;;;;;;;64.78;28.75;;;6.70;99.90;;;;;;5135528;27;20078;-74
2022/12/01 01:26:13;;;;;;;59.22;27.20;;;6.70;99.90;;;;;;5135431;27;20062;-74
2022/12/01 01:28:40;;;;;;;58.80;27.77;;;6.70;99.90;;;;;;5117645;27;20090;-74
2022/12/01 01:31:08;;;;;;;63.67;27.27;;;6.60;99.90;;;;;;5117285;27;20039;-74
2022/12/01 01:33:34;;;;;;;58.22;27.35;;;6.20;99.90;;;;;;5135049;27;20099;-74
2022/12/01 01:36:00;;;;;;;58.72;27.00;;;6.30;99.90;;;;;;5116917;27;20043;-74
2022/12/01 01:38:27;;;;;;;64.18;27.73;;;6.30;99.90;;;;;;5116840;27;20140;-74
2022/12/01 01:40:53;;;;;;;61.28;28.30;;;6.90;99.90;;;;;;5099548;27;20047;-74
2022/12/01 01:43:40;;;;;;;61.05;29.08;;;6.00;99.90;;;;;;5135018;27;20410;-74
2022/12/01 01:46:06;;;;;;;60.13;29.25;;;6.40;99.90;;;;;;5116511;27;20050;-74
2022/12/01 01:48:35;;;;;;;58.58;27.83;;;6.40;99.90;;;;;;5099979;27;20062;-74
2022/12/01 01:51:01;;;;;;;64.72;29.08;;;6.80;99.90;;;;;;5116918;27;20077;-74
2022/12/01 01:53:27;;;;;;;64.97;31.98;;;6.30;99.90;;;;;;5117060;27;20059;-74
2022/12/01 01:55:53;;;;;;;66.00;28.48;;;6.20;99.90;;;;;;5134793;27;20072;-74
2022/12/01 01:58:19;;;;;;;67.93;29.88;;;6.90;99.90;;;;;;5134387;27;20130;-74
2022/12/01 02:00:46;;;;;;;67.45;30.60;;;6.10;99.90;;;;;;5116583;27;20046;-74
2022/12/01 02:03:15;;;;;;;61.63;29.05;;;6.30;99.90;;;;;;5099814;27;20055;-74
2022/12/01 02:05:43;;;;;;;69.25;30.60;;;6.20;99.90;;;;;;5134788;27;20104;-74
2022/12/01 02:08:13;;;;;;;66.15;29.98;;;6.30;99.90;;;;;;5116560;27;20043;-74
2022/12/01 02:11:12;;;;;;;64.20;30.63;;;6.10;99.90;;;;;;5134591;27;20130;-74
2022/12/01 02:13:50;;;;;;;65.75;29.73;;;6.10;99.90;;;;;;5134581;27;20054;-74
2022/12/01 02:16:30;;;;;;;66.47;29.50;;;6.10;99.90;;;;;;5099487;27;20039;-74
2022/12/01 02:19:26;;;;;;;74.72;31.60;;;6.60;99.90;;;;;;5134688;27;20456;-74
2022/12/01 02:22:24;;;;;;;71.18;32.08;;;6.10;99.90;;;;;;5134287;27;20092;-74
2022/12/01 02:25:12;;;;;;;68.15;29.95;;;6.10;99.90;;;;;;5081702;27;20055;-74
2022/12/01 02:27:55;;;;;;;66.97;30.08;;;6.10;99.90;;;;;;5133907;27;20039;-74
2022/12/01 02:30:37;;;;;;;64.50;29.38;;;6.10;99.90;;;;;;5134445;27;20443;-74
2022/12/01 02:33:14;;;;;;;67.00;30.15;;;6.90;99.90;;;;;;5116364;28;20057;-74
2022/12/01 02:35:47;;;;;;;66.38;30.63;;;6.20;99.90;;;;;;5115958;27;20506;-74
2022/12/01 02:38:12;;;;;;;;;;;6.20;99.90;;;;;;5116329;28;20081;-74
2022/12/01 02:40:59;;;;;;;69.28;32.53;;;6.30;99.90;;;;;;5134062;27;20258;-74
2022/12/01 02:43:34;;;;;;;67.85;31.17;;;5.90;99.90;;;;;;5116039;28;20142;-74
2022/12/01 02:46:08;;;;;;;71.60;31.67;;;6.10;99.90;;;;;;5134179;27;20043;-74
2022/12/01 02:48:37;;;;;;;67.25;29.30;;;6.10;99.90;;;;;;5116039;28;20051;-74
2022/12/01 02:51:29;;;;;;;64.47;30.45;;;6.00;99.90;;;;;;5116023;27;20043;-74
2022/12/01 02:53:56;;;;;;;73.45;30.38;;;6.20;99.90;;;;;;5116251;28;20043;-74
2022/12/01 02:56:22;;;;;;;72.45;30.95;;;6.30;99.90;;;;;;5133652;27;20050;-74
2022/12/01 02:58:49;;;;;;;74.78;31.40;;;6.30;99.90;;;;;;5115696;28;20043;-74
2022/12/01 03:01:28;;;;;;;67.80;31.98;;;6.50;99.90;;;;;;5115806;27;20103;-74
2022/12/01 03:04:03;;;;;;;76.53;30.83;;;6.00;99.90;;;;;;5133873;28;20069;-74
2022/12/01 03:06:49;;;;;;;70.00;31.83;;;6.20;99.90;;;;;;5115791;28;20494;-74
2022/12/01 03:09:50;;;;;;;67.03;31.42;;;6.20;99.90;;;;;;5115989;28;20493;-74
2022/12/01 03:12:41;;;;;;;72.43;32.00;;;6.30;99.90;;;;;;5047754;28;20379;-74
2022/12/01 03:15:17;;;;;;;70.05;30.92;;;6.10;99.90;;;;;;5133948;28;20065;-74
2022/12/01 03:17:53;;;;;;;71.00;31.33;;;6.10;99.90;;;;;;5133922;27;20078;-74
2022/12/01 03:20:26;;;;;;;71.55;30.88;;;6.30;99.90;;;;;;5100745;27;20081;-74
2022/12/01 03:23:00;;;;;;;73.10;31.80;;;6.20;99.90;;;;;;5119747;27;20039;-74
2022/12/01 03:25:28;;;;;;;67.60;30.75;;;7.00;99.90;;;;;;5119696;27;20047;-74
2022/12/01 03:27:57;;;;;;;70.70;31.05;;;6.30;99.90;;;;;;5137305;27;20085;-74
2022/12/01 03:30:26;;;;;;;67.22;31.48;;;6.40;99.90;;;;;;5119445;27;20126;-74
2022/12/01 03:32:59;;;;;;;72.93;32.20;;;6.30;99.90;;;;;;5119992;27;20061;-74
2022/12/01 03:35:35;;;;;;;72.63;31.55;;;6.30;99.90;;;;;;5138128;27;20082;-74
2022/12/01 03:38:23;;;;;;;74.32;33.15;;;6.10;99.90;;;;;;5137581;27;20043;-74
2022/12/01 03:40:52;;;;;;;68.53;31.17;;;6.30;99.90;;;;;;5137298;27;20057;-74
2022/12/01 03:43:23;;;;;;;71.10;31.40;;;6.90;99.90;;;;;;5119190;27;20133;-74
2022/12/01 03:46:17;;;;;;;71.03;31.10;;;6.20;99.90;;;;;;5138016;27;20158;-74
2022/12/01 03:48:44;;;;;;;71.38;30.73;;;6.10;99.90;;;;;;5137225;27;20125;-74
2022/12/01 03:51:18;;;;;;;67.63;31.90;;;7.00;99.90;;;;;;5137305;27;20051;-74
2022/12/01 03:54:06;;;;;;;71.72;32.03;;;6.10;99.90;;;;;;5137651;27;20422;-68
2022/12/01 03:56:47;;;;;;;64.45;29.70;;;6.10;99.90;;;;;;5119224;27;20051;-68
2022/12/01 03:59:15;;;;;;;70.50;31.10;;;6.80;99.90;;;;;;5138063;27;20043;-68
2022/12/01 04:01:41;;;;;;;70.20;30.90;;;6.40;99.90;;;;;;5118819;27;20059;-68
2022/12/01 04:04:10;;;;;;;75.28;31.35;;;6.30;99.90;;;;;;5102109;27;20045;-68
2022/12/01 04:06:36;;;;;;;68.57;31.00;;;6.00;99.90;;;;;;5119458;27;20049;-68
2022/12/01 04:09:02;;;;;;;66.75;31.45;;;6.30;99.90;;;;;;5137051;27;20420;-68
2022/12/01 04:14:13;;;;;;;65.18;30.00;;;6.30;99.90;;;;;;5137870;27;20097;-68
2022/12/01 04:16:38;;;;;;;68.88;29.67;;;6.60;99.90;;;;;;5137740;27;20078;-68
2022/12/01 04:19:04;;;;;;;65.15;30.08;;;6.40;99.90;;;;;;5137100;27;20476;-68
2022/12/01 04:21:30;;;;;;;65.00;29.48;;;6.10;99.90;;;;;;5118996;27;20055;-68
2022/12/01 04:23:58;;;;;;;75.07;32.72;;;6.10;99.90;;;;;;5137639;27;20047;-68
2022/12/01 04:26:24;;;;;;;73.15;30.33;;;7.00;99.90;;;;;;5137296;27;20051;-68
2022/12/01 04:28:50;;;;;;;78.50;32.30;;;6.10;99.90;;;;;;5137557;27;20050;-68
2022/12/01 04:31:15;;;;;;;72.00;32.90;;;6.10;99.90;;;;;;5118679;27;20047;-68
2022/12/01 04:33:41;;;;;;;71.63;34.28;;;6.30;99.90;;;;;;5136916;27;20047;-68
2022/12/01 04:36:07;;;;;;;67.22;31.15;;;6.00;99.90;;;;;;5137624;27;20177;-68
2022/12/01 04:38:35;;;;;;;72.82;32.85;;;6.00;99.90;;;;;;5136713;27;20506;-68
2022/12/01 04:41:07;;;;;;;78.43;31.52;;;6.00;99.90;;;;;;5136528;27;20094;-68
2022/12/01 04:43:33;;;;;;;67.57;29.02;;;6.10;99.90;;;;;;5118769;27;20039;-68
2022/12/01 04:45:59;;;;;;;71.38;31.05;;;6.10;99.90;;;;;;5152745;27;20383;-67
2022/12/01 04:48:24;;;;;;;67.13;29.40;;;6.20;99.90;;;;;;5137195;27;20481;-67
2022/12/01 04:50:50;;;;;;;74.32;29.95;;;6.30;99.90;;;;;;5136521;27;20454;-68
2022/12/01 04:53:16;;;;;;;71.93;29.52;;;6.60;99.90;;;;;;5137312;27;20073;-67
2022/12/01 04:55:41;;;;;;;65.63;28.33;;;6.00;99.90;;;;;;5135316;27;20046;-67
2022/12/01 04:58:07;;;;;;;63.40;27.83;;;6.30;99.90;;;;;;5118843;27;20039;-68
2022/12/01 05:00:33;;;;;;;68.50;29.33;;;6.70;99.90;;;;;;5136022;27;20104;-68
2022/12/01 05:02:59;;;;;;;65.15;28.92;;;7.20;99.90;;;;;;5136270;27;20043;-68
2022/12/01 05:05:25;;;;;;;63.80;28.67;;;6.40;99.90;;;;;;5117917;27;20071;-68
2022/12/01 05:07:51;;;;;;;79.57;32.92;;;6.60;99.90;;;;;;5136158;27;20077;-68
2022/12/01 05:10:17;;;;;;;68.30;29.17;;;6.40;99.90;;;;;;5136927;27;20439;-67
2022/12/01 05:12:47;;;;;;;67.47;29.10;;;6.70;99.90;;;;;;5136038;27;20058;-68
2022/12/01 05:15:13;;;;;;;72.43;29.48;;;5.90;99.90;;;;;;5117971;27;20078;-68
2022/12/01 05:17:39;;;;;;;67.47;27.33;;;6.00;99.90;;;;;;5135894;27;20081;-68
2022/12/01 05:22:51;;;;;;;72.25;30.60;;;6.10;99.90;;;;;;5120568;27;20055;-68
2022/12/01 05:25:17;;;;;;;66.18;29.40;;;6.70;99.90;;;;;;5135856;27;20078;-68
2022/12/01 05:27:43;;;;;;;63.15;28.33;;;6.00;99.90;;;;;;5135735;27;20079;-68
2022/12/01 05:30:10;;;;;;;63.75;28.25;;;6.10;99.90;;;;;;5135463;27;20137;-68
2022/12/01 05:32:35;;;;;;;65.90;29.02;;;6.10;99.90;;;;;;5135695;27;20046;-68
2022/12/01 05:35:01;;;;;;;67.05;28.65;;;6.10;99.90;;;;;;5118300;27;20051;-68
2022/12/01 05:37:32;;;;;;;66.13;29.77;;;6.40;99.90;;;;;;5117690;27;20039;-68
2022/12/01 05:39:57;;;;;;;68.07;28.77;;;6.50;99.90;;;;;;5117477;27;20057;-68
2022/12/01 05:42:23;;;;;;;65.85;29.08;;;6.30;99.90;;;;;;5135590;27;20043;-68
2022/12/01 05:44:49;;;;;;;59.90;26.85;;;6.20;99.90;;;;;;5117950;27;20043;-68
2022/12/01 05:47:15;;;;;;;62.97;26.40;;;6.50;99.90;;;;;;5116809;27;20479;-68
2022/12/01 05:49:40;;;;;;;60.55;28.50;;;6.10;99.90;;;;;;5135647;27;20038;-68
2022/12/01 05:52:06;;;;;;;64.80;28.77;;;6.20;99.90;;;;;;5135628;27;20096;-68
2022/12/01 05:54:31;;;;;;;69.82;29.92;;;6.10;99.90;;;;;;5117068;27;20428;-68
2022/12/01 05:56:57;;;;;;;63.38;28.33;;;6.30;99.90;;;;;;5135173;27;20102;-68
2022/12/01 05:59:23;;;;;;;63.97;28.48;;;6.30;99.90;;;;;;5135081;27;20088;-68
2022/12/01 06:01:48;;;;;;;68.47;29.25;;;6.40;99.90;;;;;;5135180;27;20043;-68
2022/12/01 06:04:14;;;;;;;59.70;28.75;;;6.30;99.90;;;;;;5151450;27;20126;-68
2022/12/01 06:06:40;;;;;;;62.95;27.25;;;6.30;99.90;;;;;;5117389;27;20051;-68
2022/12/01 06:09:07;;;;;;;62.25;27.90;;;6.10;99.90;;;;;;5135004;27;20069;-68
2022/12/01 06:11:33;;;;;;;64.97;27.25;;;6.20;99.90;;;;;;5116433;27;20043;-68
2022/12/01 06:13:58;;;;;;;57.33;25.75;;;6.20;99.90;;;;;;5135000;27;20122;-68
2022/12/01 06:16:24;;;;;;;59.45;26.42;;;6.30;99.90;;;;;;5099889;27;20149;-68
2022/12/01 06:18:50;;;;;;;58.88;26.25;;;6.60;99.90;;;;;;5134855;27;20103;-68
2022/12/01 06:21:16;;;;;;;56.03;26.35;;;6.30;99.90;;;;;;5134835;27;20046;-68
2022/12/01 06:23:41;;;;;;;54.95;24.77;;;6.20;99.90;;;;;;5134843;27;20047;-68
2022/12/01 06:26:07;;;;;;;57.38;24.85;;;6.50;99.90;;;;;;5134808;27;20118;-68
2022/12/01 06:28:33;;;;;;;53.50;23.70;;;6.10;99.90;;;;;;5099670;27;20039;-68
2022/12/01 06:30:59;;;;;;;52.85;24.10;;;6.40;99.90;;;;;;5116391;28;20096;-68
2022/12/01 06:33:24;;;;;;;56.05;24.48;;;6.60;99.90;;;;;;5134753;27;20047;-68
2022/12/01 06:36:10;;;;;;;51.25;24.83;;;7.10;99.90;;;;;;5135311;27;20370;-68
2022/12/01 06:38:36;;;;;;;55.25;25.83;;;6.20;99.90;;;;;;5116544;27;20464;-68
2022/12/01 06:41:03;;;;;;;54.20;25.02;;;6.70;99.90;;;;;;5134959;27;20138;-68
2022/12/01 06:43:29;;;;;;;52.92;24.48;;;6.20;99.90;;;;;;5134577;28;20089;-68
2022/12/01 06:45:54;;;;;;;49.10;24.05;;;6.20;99.90;;;;;;5134544;28;20039;-68
2022/12/01 06:48:20;;;;;;;56.08;24.65;;;6.50;99.90;;;;;;5134556;28;20053;-68
2022/12/01 06:50:46;;;;;;;53.83;25.23;;;6.00;99.90;;;;;;5134487;28;20046;-68
2022/12/01 06:53:11;;;;;;;51.67;23.95;;;6.10;99.90;;;;;;5134471;27;20043;-68
2022/12/01 06:55:38;;;;;;;47.90;23.58;;;6.30;99.90;;;;;;5138924;27;20103;-68
2022/12/01 06:58:04;;;;;;;54.85;24.02;;;6.40;99.90;;;;;;5120224;27;20047;-68
2022/12/01 07:00:30;;;;;;;53.30;23.88;;;6.20;99.90;;;;;;5120293;27;20379;-68
2022/12/01 07:02:55;;;;;;;52.95;24.40;;;6.10;99.90;;;;;;5138687;27;20050;-68
2022/12/01 07:05:22;;;;;;;52.25;23.58;;;6.20;99.90;;;;;;5139408;27;20493;-68
2022/12/01 07:07:48;;;;;;;52.58;24.67;;;6.10;99.90;;;;;;5138581;27;20047;-68
2022/12/01 07:10:14;;;;;;;54.63;25.33;;;6.40;99.90;;;;;;5120165;27;20047;-68
2022/12/01 07:12:39;;;;;;;48.53;22.80;;;6.90;99.90;;;;;;5154782;27;20483;-68
2022/12/01 07:15:07;;;;;;;51.78;22.92;;;6.80;99.90;;;;;;5138398;27;20038;-68
2022/12/01 07:17:33;;;;;;;57.40;25.02;;;6.20;99.90;;;;;;5120167;27;20043;-68
2022/12/01 07:19:59;;;;;;;49.47;24.23;;;6.10;99.90;;;;;;5119940;27;20082;-68
2022/12/01 07:22:25;;;;;;;50.78;24.00;;;6.20;99.90;;;;;;5138265;27;20083;-68
2022/12/01 07:24:50;;;;;;;53.78;24.50;;;6.60;99.90;;;;;;5138149;27;20082;-68
2022/12/01 07:27:16;;;;;;;52.08;23.70;;;6.30;99.90;;;;;;5155179;27;20050;-68
2022/12/01 07:29:42;;;;;;;54.83;24.80;;;6.60;99.90;;;;;;5138392;27;20078;-68
2022/12/01 07:32:07;;;;;;;52.25;23.90;;;6.60;99.90;;;;;;5154265;27;20143;-68
2022/12/01 07:34:33;;;;;;;51.97;24.02;;;6.30;99.90;;;;;;5138113;27;20134;-67
2022/12/01 07:36:59;;;;;;;47.63;23.13;;;6.10;99.90;;;;;;5138457;27;20039;-68
2022/12/01 07:39:24;;;;;;;53.85;23.90;;;6.90;99.90;;;;;;5119711;27;20047;-68
2022/12/01 07:41:50;;;;;;;49.28;22.63;;;6.30;99.90;;;;;;5154054;27;20047;-68
2022/12/01 07:44:16;;;;;;;50.67;22.48;;;6.20;99.90;;;;;;5137888;27;20046;-68
2022/12/01 07:46:41;;;;;;;50.45;24.00;;;6.70;99.90;;;;;;5154711;27;20515;-68
2022/12/01 07:49:09;;;;;;;49.58;23.17;;;6.50;99.90;;;;;;5137982;27;20126;-68
2022/12/01 07:51:35;;;;;;;47.13;21.98;;;6.50;99.90;;;;;;5138213;27;20047;-68
2022/12/01 07:54:03;;;;;;;50.47;23.38;;;6.90;99.90;;;;;;5137294;27;20050;-68
2022/12/01 07:56:29;;;;;;;47.83;23.00;;;6.50;99.90;;;;;;5119308;27;20050;-68
2022/12/01 07:58:54;;;;;;;48.63;22.02;;;6.20;99.90;;;;;;5137398;27;20039;-68
2022/12/01 08:01:22;;;;;;;49.97;22.90;;;6.40;99.90;;;;;;5136563;27;20130;-68
2022/12/01 08:03:49;;;;;;;48.17;22.52;;;6.20;99.90;;;;;;5138492;27;20100;-68
2022/12/01 08:06:16;;;;;;;46.88;22.10;;;6.50;99.90;;;;;;5119076;27;20054;-68
2022/12/01 08:08:42;;;;;;;48.60;23.42;;;6.80;99.90;;;;;;5137522;27;20036;-68
2022/12/01 08:11:16;;;;;;;50.03;22.60;;;6.40;99.90;;;;;;5119391;27;20360;-68
2022/12/01 08:13:43;;;;;;;47.08;22.95;;;6.30;99.90;;;;;;5136987;27;20046;-68
2022/12/01 08:16:11;;;;;;;45.85;21.80;;;6.20;99.90;;;;;;5137268;27;20126;-68
2022/12/01 08:18:39;;;;;;;48.15;20.75;;;7.00;99.90;;;;;;5118897;27;20035;-68
2022/12/01 08:21:06;;;;;;;49.65;22.35;;;6.60;99.90;;;;;;5137253;27;20043;-68
2022/12/01 08:23:32;;;;;;;47.00;21.90;;;6.70;99.90;;;;;;5137241;27;20043;-68
2022/12/01 08:26:06;;;;;;;45.10;21.98;;;6.60;99.90;;;;;;5138014;27;20428;-68
2022/12/01 08:28:34;;;;;;;46.72;22.42;;;6.50;99.90;;;;;;5137063;27;20058;-69
2022/12/01 08:31:10;;;;;;;47.05;21.77;;;7.10;99.90;;;;;;5137679;27;20134;-68
2022/12/01 08:33:36;;;;;;;52.25;22.58;;;6.30;99.90;;;;;;5137106;27;20047;-68
2022/12/01 08:36:03;;;;;;;50.75;22.27;;;6.10;99.90;;;;;;5137001;27;20035;-68
2022/12/01 08:38:29;;;;;;;47.38;22.35;;;6.30;99.90;;;;;;5136611;27;20039;-68
2022/12/01 08:41:02;;;;;;;47.53;22.02;;;6.70;99.90;;;;;;5137327;27;20063;-67
2022/12/01 08:43:28;;;;;;;49.55;23.08;;;6.20;99.90;;;;;;5137216;27;20051;-67
2022/12/01 08:45:57;;;;;;;51.38;22.27;;;6.20;99.90;;;;;;5136866;27;20394;-66
2022/12/01 08:48:23;;;;;;;47.17;22.55;;;6.50;99.90;;;;;;5136734;27;20079;-67
2022/12/01 08:50:48;;;;;;;50.35;22.73;;;6.90;99.90;;;;;;5136807;27;20085;-67
2022/12/01 08:53:14;;;;;;;52.78;22.85;;;6.40;99.90;;;;;;5119417;27;20050;-67
2022/12/01 08:55:40;;;;;;;49.08;22.88;;;6.20;99.90;;;;;;5137205;27;20463;-67
2022/12/01 08:58:05;;;;;;;53.78;23.25;;;6.40;99.90;;;;;;5118904;27;20043;-66
2022/12/01 09:00:31;;;;;;;50.97;23.50;;;7.10;99.90;;;;;;5136811;27;20043;-68
2022/12/01 09:02:57;;;;;;;52.97;23.08;;;6.30;99.90;;;;;;5136789;27;20043;-67
2022/12/01 09:05:22;;;;;;;48.95;22.60;;;6.60;99.90;;;;;;5136760;27;20039;-67
2022/12/01 09:08:30;;;;;;;54.22;23.17;;;6.20;99.90;;;;;;5136930;27;20115;-69
2022/12/01 09:10:34;;;;;;;51.90;22.40;;;6.50;99.90;;;;;;5136133;27;20054;-69
2022/12/01 09:12:59;;;;;;;49.30;22.55;;;6.30;99.90;;;;;;5152301;27;20047;-70
2022/12/01 09:15:25;;;;;;;54.78;23.63;;;6.80;99.90;;;;;;5152292;27;20077;-69
2022/12/01 09:17:50;;;;;;;53.22;24.08;;;6.60;99.90;;;;;;5116759;27;20095;-69
2022/12/01 09:20:16;;;;;;;51.17;23.20;;;6.90;99.90;;;;;;5136443;27;20043;-69
2022/12/01 09:22:42;;;;;;;54.13;24.00;;;6.40;99.90;;;;;;5117855;27;20449;-70
2022/12/01 09:25:13;;;;;;;54.75;23.67;;;7.30;99.90;;;;;;5152043;27;20043;-69
2022/12/01 09:27:39;;;;;;;47.70;22.55;;;6.30;99.90;;;;;;5119380;27;20118;-69
2022/12/01 09:30:05;;;;;;;46.95;22.98;;;6.60;99.90;;;;;;5117773;27;20434;-69
2022/12/01 09:32:31;;;;;;;49.47;23.77;;;6.50;99.90;;;;;;5135785;27;20047;-69
2022/12/01 09:34:56;;;;;;;49.33;22.63;;;6.90;99.90;;;;;;5117488;27;20047;-68
2022/12/01 09:37:22;;;;;;;50.35;22.48;;;6.80;99.90;;;;;;5136237;27;20142;-69
2022/12/01 09:39:48;;;;;;;52.00;23.40;;;6.70;99.90;;;;;;5136044;27;20054;-69
2022/12/01 09:42:17;;;;;;;49.13;21.92;;;6.50;99.90;;;;;;5118072;27;20050;-69
2022/12/01 09:44:51;;;;;;;52.83;23.02;;;6.90;99.90;;;;;;5135625;27;20047;-69
2022/12/01 09:47:25;;;;;;;48.60;23.02;;;6.30;99.90;;;;;;5100808;27;20042;-70
2022/12/01 09:49:57;;;;;;;51.53;22.75;;;7.50;99.90;;;;;;5135577;27;20043;-70
2022/12/01 09:52:25;;;;;;;47.00;23.23;;;6.40;99.90;;;;;;5135552;27;20047;-69
2022/12/01 09:54:54;;;;;;;51.65;23.90;;;6.70;99.90;;;;;;5136285;27;20043;-69
2022/12/01 09:57:30;;;;;;;48.67;22.27;;;6.80;99.90;;;;;;5135263;27;20079;-69
2022/12/01 09:59:57;;;;;;;48.38;22.15;;;6.40;99.90;;;;;;5135428;27;20047;-69
2022/12/01 10:02:32;;;;;;;46.55;23.15;;;6.50;99.90;;;;;;5135286;27;20076;-68
2022/12/01 10:05:04;;;;;;;47.22;21.20;;;7.20;99.90;;;;;;5136074;27;20043;-68
2022/12/01 10:07:38;;;;;;;49.17;22.98;;;6.50;99.90;;;;;;5134988;27;20541;-68
2022/12/01 10:10:13;;;;;;;46.38;22.85;;;6.80;99.90;;;;;;5135792;27;20047;-69
2022/12/01 10:12:42;;;;;;;46.88;22.77;;;6.50;99.90;;;;;;5135732;27;20121;-69
2022/12/01 10:15:14;;;;;;;41.83;19.75;;;6.70;99.90;;;;;;5116823;27;20051;-69
2022/12/01 10:18:07;;;;;;;45.92;22.10;;;6.50;99.90;;;;;;5135848;27;20059;-69
2022/12/01 10:20:51;;;;;;;38.42;20.45;;;7.30;99.90;;;;;;5092557;27;20046;-67
2022/12/01 10:23:52;;;;;;;45.40;21.33;;;6.30;99.90;;;;;;5135774;27;20070;-67
2022/12/01 10:26:39;;;;;;;43.60;20.63;;;6.40;99.90;;;;;;5106413;27;20051;-67
2022/12/01 10:29:12;;;;;;;44.60;22.25;;;6.50;99.90;;;;;;5116712;27;20047;-67
2022/12/01 10:31:52;;;;;;;43.92;21.60;;;6.70;99.90;;;;;;5116621;28;20043;-67
2022/12/01 10:34:20;;;;;;;44.88;22.50;;;6.20;99.90;;;;;;5134887;27;20043;-67
2022/12/01 10:36:46;;;;;;;47.28;22.05;;;6.50;99.90;;;;;;5135301;27;20479;-67
2022/12/01 10:39:40;;;;;;;47.47;23.42;;;6.40;99.90;;;;;;5147480;27;20527;-68
2022/12/01 10:42:17;;;;;;;41.17;21.88;;;6.70;99.90;;;;;;5135098;27;20391;-67
2022/12/01 10:44:44;;;;;;;44.95;21.27;;;6.40;99.90;;;;;;5135513;28;20050;-67
2022/12/01 10:47:22;;;;;;;43.35;20.83;;;7.00;99.90;;;;;;5116679;28;20506;-67
2022/12/01 10:49:48;;;;;;;42.13;22.02;;;6.60;99.90;;;;;;5150775;27;20047;-67
2022/12/01 10:52:32;;;;;;;40.53;20.33;;;7.20;99.90;;;;;;5135199;28;20471;-67
2022/12/01 10:54:59;;;;;;;39.83;19.77;;;6.40;99.90;;;;;;5134578;28;20051;-67
2022/12/01 10:57:27;;;;;;;42.05;20.65;;;6.30;99.90;;;;;;5134401;28;20047;-68
2022/12/01 11:00:07;;;;;;;41.60;20.45;;;6.70;99.90;;;;;;5134758;28;20043;-68
2022/12/01 11:02:34;;;;;;;40.58;19.90;;;6.30;99.90;;;;;;5134532;28;20047;-67
2022/12/01 11:05:06;;;;;;;39.72;20.08;;;6.30;99.90;;;;;;5134824;28;20050;-67
2022/12/01 11:07:42;;;;;;;33.85;19.00;;;6.40;99.90;;;;;;5134468;28;20039;-67
2022/12/01 11:10:34;;;;;;;41.65;19.75;;;6.60;99.90;;;;;;5135157;28;20047;-67
2022/12/01 11:13:27;;;;;;;39.53;19.73;;;6.30;99.90;;;;;;5133908;28;20055;-67
2022/12/01 11:15:55;;;;;;;38.08;19.80;;;6.30;99.90;;;;;;5099645;28;20047;-67
2022/12/01 11:18:22;;;;;;;39.63;20.25;;;6.60;99.90;;;;;;5099485;28;20046;-68
2022/12/01 11:21:22;;;;;;;45.10;20.42;;;6.60;99.90;;;;;;5134372;28;20043;-68
2022/12/01 11:23:51;;;;;;;42.72;19.42;;;6.30;99.90;;;;;;5134294;28;20050;-68
2022/12/01 11:26:33;;;;;;;45.90;21.83;;;6.40;99.90;;;;;;5134133;28;20043;-67
2022/12/01 11:29:00;;;;;;;43.65;20.48;;;6.60;99.90;;;;;;5134061;28;20126;-67
2022/12/01 11:31:42;;;;;;;41.00;19.60;;;7.00;99.90;;;;;;5133741;28;20154;-67
2022/12/01 11:34:24;;;;;;;38.13;20.50;;;6.20;99.90;;;;;;5134714;28;20080;-67
2022/12/01 11:36:53;;;;;;;39.65;20.38;;;6.30;99.90;;;;;;5134575;28;20402;-67
2022/12/01 11:39:31;;;;;;;44.60;20.48;;;7.00;99.90;;;;;;5133474;28;20512;-67
2022/12/01 11:42:21;;;;;;;42.55;19.60;;;6.40;99.90;;;;;;5136791;27;20047;-67
2022/12/01 11:44:52;;;;;;;35.95;20.27;;;6.60;99.90;;;;;;5138412;27;20050;-67
2022/12/01 11:47:20;;;;;;;38.55;20.20;;;6.70;99.90;;;;;;5119509;27;20558;-67
2022/12/01 11:49:53;;;;;;;42.42;20.80;;;6.40;99.90;;;;;;5119654;27;20054;-67
2022/12/01 11:52:45;;;;;;;35.03;19.65;;;6.60;99.90;;;;;;5119459;27;20054;-67
2022/12/01 11:55:11;;;;;;;36.03;19.33;;;6.50;99.90;;;;;;5133836;27;20134;-67
2022/12/01 11:57:44;;;;;;;37.10;20.17;;;6.60;99.90;;;;;;5137431;27;20157;-68
2022/12/01 12:00:14;;;;;;;35.58;19.33;;;6.70;99.90;;;;;;5137714;27;20074;-67
2022/12/01 12:02:51;;;;;;;36.08;19.25;;;6.20;99.90;;;;;;5137815;27;20130;-67
2022/12/01 12:05:44;;;;;;;40.35;20.20;;;6.40;99.90;;;;;;5137539;27;20043;-67
2022/12/01 12:08:47;;;;;;;39.30;20.55;;;6.30;99.90;;;;;;5137431;27;20051;-67
2022/12/01 12:11:23;;;;;;;38.97;20.27;;;6.20;99.90;;;;;;5137441;27;20049;-69
2022/12/01 12:13:57;;;;;;;41.70;21.30;;;6.30;99.90;;;;;;5137258;27;20047;-68
2022/12/01 12:16:47;;;;;;;42.35;22.30;;;6.40;99.90;;;;;;5138131;27;20070;-68
2022/12/01 12:19:46;;;;;;;45.00;23.25;;;6.70;99.90;;;;;;5137814;27;20097;-68
2022/12/01 12:22:20;;;;;;;48.03;22.90;;;6.30;99.90;;;;;;5106860;27;20055;-67
2022/12/01 12:25:01;;;;;;;42.42;22.13;;;6.50;99.90;;;;;;5137827;27;20378;-67
2022/12/01 12:27:26;;;;;;;41.60;22.13;;;6.70;99.90;;;;;;5119651;27;20146;-67
2022/12/01 12:30:26;;;;;;;43.03;23.38;;;6.80;99.90;;;;;;5118756;27;20149;-67
2022/12/01 12:33:06;;;;;;;46.63;24.33;;;6.30;99.90;;;;;;5136915;27;20047;-67
2022/12/01 12:35:38;;;;;;;45.97;24.25;;;6.40;99.90;;;;;;5136732;27;20047;-67
2022/12/01 12:38:27;;;;;;;46.83;25.10;;;6.70;99.90;;;;;;5118501;27;20090;-67
2022/12/01 12:41:07;;;;;;;47.97;25.30;;;6.30;99.90;;;;;;5136505;27;20063;-67
2022/12/01 12:43:40;;;;;;;46.53;24.13;;;6.30;99.90;;;;;;5136914;27;20048;-67
2022/12/01 12:46:10;;;;;;;46.85;24.48;;;6.30;99.90;;;;;;5136611;27;20098;-67
2022/12/01 12:48:43;;;;;;;47.42;23.27;;;6.60;99.90;;;;;;5136484;27;20100;-67
2022/12/01 12:51:13;;;;;;;50.42;24.75;;;6.50;99.90;;;;;;5119068;27;20344;-67
2022/12/01 12:54:07;;;;;;;47.58;25.63;;;6.60;99.90;;;;;;5136836;27;20043;-67
2022/12/01 12:56:35;;;;;;;43.28;24.90;;;6.20;99.90;;;;;;5136985;27;20360;-67
2022/12/01 12:59:15;;;;;;;43.25;24.40;;;6.40;99.90;;;;;;5135790;27;20517;-67
2022/12/01 13:02:03;;;;;;;47.28;25.80;;;7.20;99.90;;;;;;5136592;27;20390;-67
2022/12/01 13:04:55;;;;;;;53.67;27.25;;;6.20;99.90;;;;;;5117449;27;20086;-67